Time;durP1;ratioP1;P1;durP2;ratioP2;P2;SDS_P1;SDS_P2;PMS_P1;PMS_P2;Temp;Humidity;BMP_temperature;BMP_pressure;BME280_temperature;BME280_humidity;BME280_pressure;Samples;Min_cycle;Max_cycle;Signal;HPM_P1;HPM_P2
2023/12/23 00:00:18;;;;;;;0.20;0.10;;;;;;;;;;5002298;28;20608;-84
2023/12/23 00:02:44;;;;;;;0.20;0.05;;;;;;;;;;5000995;28;20058;-84
2023/12/23 00:05:10;;;;;;;0.20;0.10;;;;;;;;;;5010909;28;20747;-84
2023/12/23 00:07:36;;;;;;;0.20;0.10;;;;;;;;;;5008580;28;20100;-85
2023/12/23 00:10:03;;;;;;;0.20;0.10;;;;;;;;;;5008577;28;20061;-84
2023/12/23 00:12:29;;;;;;;0.20;0.10;;;;;;;;;;5002449;28;20393;-85
2023/12/23 00:14:55;;;;;;;0.20;0.03;;;;;;;;;;5007770;28;20041;-84
2023/12/23 00:17:22;;;;;;;0.20;0.10;;;;;;;;;;5006485;28;20034;-84
2023/12/23 00:19:48;;;;;;;0.20;0.10;;;;;;;;;;5010024;28;20052;-84
2023/12/23 00:22:14;;;;;;;0.20;0.10;;;;;;;;;;5007106;28;20042;-85
2023/12/23 00:24:39;;;;;;;0.20;0.03;;;;;;;;;;4990541;28;20061;-84
2023/12/23 00:27:06;;;;;;;0.20;0.00;;;;;;;;;;5006995;28;20420;-85
2023/12/23 00:29:32;;;;;;;0.20;0.00;;;;;;;;;;5003089;28;20072;-86
2023/12/23 00:31:58;;;;;;;0.20;0.00;;;;;;;;;;5020743;28;20049;-84
2023/12/23 00:34:24;;;;;;;0.20;0.10;;;;;;;;;;5020926;28;20049;-86
2023/12/23 00:36:50;;;;;;;0.20;0.00;;;;;;;;;;4993669;28;20038;-85
2023/12/23 00:39:16;;;;;;;0.20;0.10;;;;;;;;;;5008849;28;20042;-86
2023/12/23 00:41:42;;;;;;;0.20;0.00;;;;;;;;;;5012747;28;20074;-86
2023/12/23 00:44:08;;;;;;;0.20;0.00;;;;;;;;;;5023445;28;20038;-85
2023/12/23 00:46:34;;;;;;;0.98;0.28;;;;;;;;;;5005119;28;20042;-86
2023/12/23 00:49:00;;;;;;;0.20;0.00;;;;;;;;;;5005494;28;20510;-86
2023/12/23 00:51:26;;;;;;;0.20;0.00;;;;;;;;;;5000088;28;20042;-85
2023/12/23 00:53:52;;;;;;;0.38;0.38;;;;;;;;;;4991174;28;20034;-85
2023/12/23 00:56:22;;;;;;;0.20;0.00;;;;;;;;;;5000691;28;20037;-87
2023/12/23 00:58:48;;;;;;;0.20;0.03;;;;;;;;;;5006917;28;20084;-86
2023/12/23 01:01:15;;;;;;;0.20;0.10;;;;;;;;;;5020124;28;20514;-86
2023/12/23 01:03:41;;;;;;;0.20;0.00;;;;;;;;;;5005960;28;20072;-85
2023/12/23 01:06:07;;;;;;;0.20;0.00;;;;;;;;;;5004800;28;20064;-86
2023/12/23 01:08:33;;;;;;;0.20;0.00;;;;;;;;;;5006161;28;20436;-85
2023/12/23 01:10:59;;;;;;;0.20;0.00;;;;;;;;;;5005555;28;20477;-85
2023/12/23 01:13:50;;;;;;;0.68;0.55;;;;;;;;;;5022835;28;20050;-84
2023/12/23 01:16:17;;;;;;;0.20;0.00;;;;;;;;;;4962812;28;20055;-87
2023/12/23 01:18:43;;;;;;;0.20;0.00;;;;;;;;;;4948447;28;20039;-86
2023/12/23 01:21:11;;;;;;;0.20;0.10;;;;;;;;;;4951349;28;20466;-85
2023/12/23 01:23:37;;;;;;;0.20;0.10;;;;;;;;;;4968544;28;20057;-84
2023/12/23 01:26:11;;;;;;;0.20;0.10;;;;;;;;;;4950609;28;20050;-87
2023/12/23 01:28:49;;;;;;;0.85;0.40;;;;;;;;;;4950464;28;20042;-88
2023/12/23 01:31:18;;;;;;;0.20;0.00;;;;;;;;;;4966470;28;20085;-86
2023/12/23 01:33:47;;;;;;;0.20;0.10;;;;;;;;;;4959073;28;20515;-86
2023/12/23 01:36:15;;;;;;;0.20;0.10;;;;;;;;;;4949055;28;20133;-87
2023/12/23 01:38:41;;;;;;;0.20;0.10;;;;;;;;;;4948551;28;20138;-86
2023/12/23 01:41:10;;;;;;;0.20;0.00;;;;;;;;;;4960316;28;20043;-86
2023/12/23 01:43:39;;;;;;;0.20;0.08;;;;;;;;;;4949186;28;20046;-89
2023/12/23 01:46:08;;;;;;;0.20;0.10;;;;;;;;;;4967912;28;20078;-87
2023/12/23 01:48:40;;;;;;;0.20;0.10;;;;;;;;;;4964013;28;20050;-88
2023/12/23 01:51:06;;;;;;;0.20;0.10;;;;;;;;;;4965190;28;20093;-89
2023/12/23 01:53:33;;;;;;;0.20;0.10;;;;;;;;;;4959821;28;20043;-83
2023/12/23 01:56:01;;;;;;;0.20;0.00;;;;;;;;;;4968055;28;20055;-86
2023/12/23 01:58:28;;;;;;;0.20;0.10;;;;;;;;;;4950452;28;20528;-87
2023/12/23 02:00:54;;;;;;;0.20;0.10;;;;;;;;;;4963820;28;20051;-84
2023/12/23 02:03:24;;;;;;;0.20;0.10;;;;;;;;;;4966020;28;20061;-85
2023/12/23 02:05:50;;;;;;;0.20;0.00;;;;;;;;;;4964577;28;20039;-83
2023/12/23 02:08:16;;;;;;;0.20;0.10;;;;;;;;;;4949911;28;20035;-89
2023/12/23 02:10:46;;;;;;;0.20;0.10;;;;;;;;;;4953115;28;20509;-83
2023/12/23 02:13:25;;;;;;;0.20;0.00;;;;;;;;;;4983329;28;20034;-85
2023/12/23 02:15:52;;;;;;;0.20;0.00;;;;;;;;;;4962466;28;20046;-85
2023/12/23 02:18:21;;;;;;;0.20;0.00;;;;;;;;;;4947770;28;20104;-86
2023/12/23 02:20:48;;;;;;;0.20;0.10;;;;;;;;;;4968287;28;20525;-85
2023/12/23 02:23:14;;;;;;;0.20;0.10;;;;;;;;;;4963844;28;20043;-84
2023/12/23 02:25:43;;;;;;;0.20;0.00;;;;;;;;;;4964611;28;20046;-85
2023/12/23 02:28:10;;;;;;;0.20;0.00;;;;;;;;;;4949485;28;20043;-85
2023/12/23 02:30:39;;;;;;;0.20;0.10;;;;;;;;;;4946559;28;20043;-87
2023/12/23 02:33:08;;;;;;;0.20;0.08;;;;;;;;;;4947352;28;20097;-89
2023/12/23 02:35:34;;;;;;;0.20;0.10;;;;;;;;;;4950719;28;20496;-86
2023/12/23 02:38:03;;;;;;;0.20;0.08;;;;;;;;;;4963256;28;20133;-86
2023/12/23 02:40:29;;;;;;;0.20;0.10;;;;;;;;;;4949520;28;20047;-84
2023/12/23 02:42:55;;;;;;;0.20;0.00;;;;;;;;;;4964508;28;20054;-85
2023/12/23 02:45:21;;;;;;;0.20;0.10;;;;;;;;;;4944674;28;20038;-88
2023/12/23 02:47:50;;;;;;;0.20;0.05;;;;;;;;;;4949837;28;20125;-88
2023/12/23 02:50:16;;;;;;;0.20;0.00;;;;;;;;;;4964182;28;20106;-87
2023/12/23 02:52:42;;;;;;;0.20;0.10;;;;;;;;;;4949838;28;20730;-84
2023/12/23 02:55:08;;;;;;;0.20;0.00;;;;;;;;;;4949826;28;20051;-87
2023/12/23 02:57:34;;;;;;;0.20;0.10;;;;;;;;;;4947594;28;20053;-82
2023/12/23 03:00:03;;;;;;;0.20;0.00;;;;;;;;;;4964451;28;20069;-86
2023/12/23 03:02:29;;;;;;;0.20;0.08;;;;;;;;;;4961723;28;20050;-85
2023/12/23 03:05:00;;;;;;;0.20;0.00;;;;;;;;;;4964000;28;20046;-85
2023/12/23 03:07:42;;;;;;;0.20;0.10;;;;;;;;;;4962269;28;20039;-84
2023/12/23 03:10:17;;;;;;;0.20;0.00;;;;;;;;;;4965515;28;20043;-84
2023/12/23 03:12:43;;;;;;;0.20;0.10;;;;;;;;;;4962788;28;20074;-85
2023/12/23 03:15:10;;;;;;;0.20;0.00;;;;;;;;;;4948399;28;20046;-83
2023/12/23 03:17:36;;;;;;;0.20;0.08;;;;;;;;;;4960626;28;20050;-84
2023/12/23 03:20:02;;;;;;;0.20;0.10;;;;;;;;;;4947877;28;20065;-85
2023/12/23 03:22:32;;;;;;;0.20;0.10;;;;;;;;;;4947592;28;20070;-83
2023/12/23 03:25:08;;;;;;;0.20;0.03;;;;;;;;;;4958959;28;20054;-84
2023/12/23 03:27:35;;;;;;;0.20;0.10;;;;;;;;;;4946071;28;20039;-83
2023/12/23 03:30:01;;;;;;;0.20;0.10;;;;;;;;;;4948431;28;20039;-83
2023/12/23 03:32:27;;;;;;;0.20;0.03;;;;;;;;;;4949651;28;20050;-82
2023/12/23 03:34:53;;;;;;;0.20;0.00;;;;;;;;;;4964087;28;20038;-82
2023/12/23 03:37:19;;;;;;;0.20;0.03;;;;;;;;;;4944121;28;20039;-82
2023/12/23 03:39:45;;;;;;;0.20;0.10;;;;;;;;;;4948112;28;20043;-82
2023/12/23 03:42:11;;;;;;;0.20;0.10;;;;;;;;;;4957422;28;20043;-84
2023/12/23 03:44:37;;;;;;;0.20;0.00;;;;;;;;;;4944393;28;20038;-83
2023/12/23 03:47:04;;;;;;;0.20;0.10;;;;;;;;;;4946045;28;20589;-83
2023/12/23 03:49:30;;;;;;;0.20;0.00;;;;;;;;;;4949819;28;20122;-82
2023/12/23 03:51:56;;;;;;;0.20;0.00;;;;;;;;;;4951568;28;20130;-82
2023/12/23 03:54:22;;;;;;;0.20;0.00;;;;;;;;;;4962671;28;20118;-83
2023/12/23 03:56:48;;;;;;;0.20;0.10;;;;;;;;;;4944766;28;20113;-82
2023/12/23 03:59:13;;;;;;;0.20;0.00;;;;;;;;;;4974063;28;20044;-81
2023/12/23 04:01:40;;;;;;;0.20;0.00;;;;;;;;;;4979319;28;20047;-81
2023/12/23 04:04:06;;;;;;;0.20;0.10;;;;;;;;;;4958096;28;20063;-82
2023/12/23 04:06:32;;;;;;;0.20;0.10;;;;;;;;;;4956714;28;20049;-83
2023/12/23 04:08:58;;;;;;;0.20;0.10;;;;;;;;;;4973810;28;20122;-80
2023/12/23 04:11:24;;;;;;;0.20;0.05;;;;;;;;;;4956598;28;20186;-82
2023/12/23 04:13:50;;;;;;;0.20;0.10;;;;;;;;;;4956150;28;20115;-82
2023/12/23 04:16:16;;;;;;;0.20;0.00;;;;;;;;;;4968245;28;20049;-82
2023/12/23 04:18:42;;;;;;;0.20;0.00;;;;;;;;;;4971817;28;20039;-82
2023/12/23 04:21:09;;;;;;;0.20;0.10;;;;;;;;;;4970153;28;20051;-82
2023/12/23 04:23:36;;;;;;;0.20;0.10;;;;;;;;;;4970361;28;20126;-82
2023/12/23 04:26:02;;;;;;;0.20;0.10;;;;;;;;;;4969428;28;20101;-82
2023/12/23 04:28:28;;;;;;;0.20;0.10;;;;;;;;;;4952508;28;20039;-83
2023/12/23 04:30:56;;;;;;;0.20;0.00;;;;;;;;;;4950836;28;20065;-83
2023/12/23 04:33:22;;;;;;;0.20;0.00;;;;;;;;;;4962006;28;20128;-83
2023/12/23 04:35:49;;;;;;;0.20;0.10;;;;;;;;;;4947523;28;20038;-83
2023/12/23 04:38:16;;;;;;;0.20;0.10;;;;;;;;;;4946494;28;20503;-82
2023/12/23 04:40:42;;;;;;;0.20;0.10;;;;;;;;;;4957267;28;20466;-82
2023/12/23 04:43:08;;;;;;;0.20;0.10;;;;;;;;;;4950373;28;20039;-83
2023/12/23 04:45:34;;;;;;;0.20;0.10;;;;;;;;;;4947016;28;20039;-82
2023/12/23 04:48:00;;;;;;;0.20;0.00;;;;;;;;;;4963477;28;20518;-83
2023/12/23 04:50:26;;;;;;;0.20;0.08;;;;;;;;;;4952345;28;20049;-83
2023/12/23 04:52:52;;;;;;;0.20;0.00;;;;;;;;;;4953310;28;20066;-83
2023/12/23 04:55:18;;;;;;;0.20;0.00;;;;;;;;;;4950220;28;20374;-83
2023/12/23 04:57:44;;;;;;;0.20;0.00;;;;;;;;;;4950694;28;20130;-83
2023/12/23 05:00:11;;;;;;;0.20;0.20;;;;;;;;;;4951584;28;20133;-83
2023/12/23 05:02:37;;;;;;;0.20;0.00;;;;;;;;;;4963407;28;20070;-82
2023/12/23 05:05:03;;;;;;;0.20;0.10;;;;;;;;;;4969405;28;20069;-83
2023/12/23 05:07:29;;;;;;;0.20;0.10;;;;;;;;;;4945784;28;20038;-83
2023/12/23 05:09:55;;;;;;;0.20;0.00;;;;;;;;;;4979252;28;20039;-83
2023/12/23 05:12:24;;;;;;;0.20;0.10;;;;;;;;;;4969083;28;20073;-83
2023/12/23 05:14:51;;;;;;;0.20;0.10;;;;;;;;;;4967827;28;20122;-82
2023/12/23 05:17:17;;;;;;;0.20;0.10;;;;;;;;;;4958273;28;20058;-82
2023/12/23 05:19:43;;;;;;;0.20;0.00;;;;;;;;;;4972421;28;20069;-82
2023/12/23 05:22:09;;;;;;;0.20;0.10;;;;;;;;;;4956236;28;20130;-82
2023/12/23 05:24:38;;;;;;;0.20;0.10;;;;;;;;;;4970782;28;20050;-83
2023/12/23 05:27:05;;;;;;;0.20;0.10;;;;;;;;;;4956608;28;20047;-83
2023/12/23 05:29:31;;;;;;;0.20;0.00;;;;;;;;;;4974394;28;20451;-83
2023/12/23 05:31:57;;;;;;;0.20;0.10;;;;;;;;;;4964467;28;20539;-83
2023/12/23 05:34:23;;;;;;;0.20;0.00;;;;;;;;;;4953991;28;20046;-83
2023/12/23 05:36:50;;;;;;;0.20;0.00;;;;;;;;;;4957415;28;20077;-83
2023/12/23 05:39:16;;;;;;;0.20;0.10;;;;;;;;;;4953447;28;20039;-83
2023/12/23 05:41:42;;;;;;;0.20;0.00;;;;;;;;;;4974078;28;20819;-83
2023/12/23 05:44:08;;;;;;;0.20;0.00;;;;;;;;;;4950520;28;20694;-83
2023/12/23 05:46:34;;;;;;;0.20;0.10;;;;;;;;;;4970949;28;20046;-83
2023/12/23 05:49:00;;;;;;;0.20;0.10;;;;;;;;;;4978244;28;20041;-82
2023/12/23 05:51:26;;;;;;;0.20;0.00;;;;;;;;;;4962169;28;20047;-83
2023/12/23 05:53:52;;;;;;;0.20;0.00;;;;;;;;;;4981790;28;20050;-83
2023/12/23 05:56:18;;;;;;;0.20;0.00;;;;;;;;;;4985837;28;20062;-83
2023/12/23 05:58:44;;;;;;;0.20;0.00;;;;;;;;;;4972777;28;20070;-82
2023/12/23 06:01:10;;;;;;;0.20;0.00;;;;;;;;;;4951329;28;20039;-83
2023/12/23 06:03:36;;;;;;;0.20;0.00;;;;;;;;;;4955360;28;20035;-83
2023/12/23 06:06:04;;;;;;;0.20;0.10;;;;;;;;;;4956755;28;20035;-83
2023/12/23 06:08:30;;;;;;;0.20;0.10;;;;;;;;;;4971497;28;20094;-82
2023/12/23 06:10:56;;;;;;;0.20;0.03;;;;;;;;;;4971721;28;20090;-83
2023/12/23 06:13:23;;;;;;;0.20;0.08;;;;;;;;;;4971173;28;20031;-83
2023/12/23 06:15:49;;;;;;;0.20;0.10;;;;;;;;;;4965584;28;20034;-84
2023/12/23 06:18:15;;;;;;;0.20;0.00;;;;;;;;;;4980750;28;20045;-83
2023/12/23 06:20:41;;;;;;;0.20;0.00;;;;;;;;;;4973460;28;20035;-82
2023/12/23 06:23:07;;;;;;;0.20;0.00;;;;;;;;;;4983330;28;20050;-83
2023/12/23 06:25:33;;;;;;;0.20;0.00;;;;;;;;;;4975302;28;20034;-83
2023/12/23 06:27:59;;;;;;;0.20;0.00;;;;;;;;;;4971876;28;20039;-84
2023/12/23 06:30:25;;;;;;;0.20;0.10;;;;;;;;;;4969795;28;20042;-83
2023/12/23 06:32:51;;;;;;;0.20;0.00;;;;;;;;;;4972570;28;20038;-86
2023/12/23 06:35:18;;;;;;;0.20;0.00;;;;;;;;;;4959953;28;20077;-84
2023/12/23 06:37:44;;;;;;;0.20;0.00;;;;;;;;;;4962003;28;20062;-84
2023/12/23 06:40:10;;;;;;;0.20;0.00;;;;;;;;;;4953536;28;20050;-82
2023/12/23 06:42:36;;;;;;;0.20;0.10;;;;;;;;;;4968650;28;20049;-83
2023/12/23 06:45:06;;;;;;;0.20;0.08;;;;;;;;;;4951525;28;20046;-84
2023/12/23 06:47:32;;;;;;;0.20;0.10;;;;;;;;;;4968000;28;20058;-84
2023/12/23 06:50:01;;;;;;;0.20;0.10;;;;;;;;;;4969643;28;20058;-84
2023/12/23 06:52:27;;;;;;;0.20;0.10;;;;;;;;;;4954544;28;20047;-84
2023/12/23 06:54:53;;;;;;;0.20;0.10;;;;;;;;;;4953120;28;20043;-83
2023/12/23 06:57:19;;;;;;;0.20;0.10;;;;;;;;;;4973087;28;20051;-83
2023/12/23 06:59:48;;;;;;;0.20;0.10;;;;;;;;;;4972102;28;20050;-84
2023/12/23 07:02:15;;;;;;;0.20;0.00;;;;;;;;;;4954512;28;20053;-84
2023/12/23 07:04:42;;;;;;;0.20;0.10;;;;;;;;;;4952393;28;20085;-83
2023/12/23 07:07:08;;;;;;;0.20;0.00;;;;;;;;;;4969258;28;20035;-84
2023/12/23 07:09:34;;;;;;;0.20;0.03;;;;;;;;;;4954013;28;20117;-85
2023/12/23 07:12:00;;;;;;;0.20;0.00;;;;;;;;;;4969390;28;20046;-84
2023/12/23 07:14:26;;;;;;;0.20;0.10;;;;;;;;;;4988435;22;20059;-83
2023/12/23 07:16:52;;;;;;;0.20;0.10;;;;;;;;;;5028607;28;20048;-82
2023/12/23 07:19:19;;;;;;;0.20;0.10;;;;;;;;;;5034615;28;20099;-83
2023/12/23 07:21:48;;;;;;;0.20;0.00;;;;;;;;;;5032195;28;20029;-81
2023/12/23 07:24:14;;;;;;;0.20;0.00;;;;;;;;;;5029766;28;20044;-82
2023/12/23 07:26:40;;;;;;;0.20;0.00;;;;;;;;;;5066613;28;20034;-83
2023/12/23 07:29:06;;;;;;;0.20;0.10;;;;;;;;;;5046435;28;20396;-83
2023/12/23 07:31:32;;;;;;;0.20;0.00;;;;;;;;;;5055277;28;20052;-83
2023/12/23 07:34:02;;;;;;;0.20;0.00;;;;;;;;;;5054695;28;20040;-83
2023/12/23 07:36:28;;;;;;;0.20;0.00;;;;;;;;;;5064077;28;20590;-82
2023/12/23 07:38:54;;;;;;;0.20;0.00;;;;;;;;;;5065606;28;20061;-82
2023/12/23 07:41:20;;;;;;;0.20;0.00;;;;;;;;;;5070873;28;20504;-83
2023/12/23 07:43:46;;;;;;;0.20;0.05;;;;;;;;;;5053915;28;20047;-85
2023/12/23 07:46:12;;;;;;;0.20;0.05;;;;;;;;;;5061225;28;20044;-81
2023/12/23 07:48:38;;;;;;;0.20;0.00;;;;;;;;;;5052902;28;20035;-82
2023/12/23 07:51:08;;;;;;;0.20;0.00;;;;;;;;;;5054763;28;21534;-83
2023/12/23 07:53:34;;;;;;;0.20;0.00;;;;;;;;;;5067567;28;20072;-83
2023/12/23 07:56:00;;;;;;;0.20;0.00;;;;;;;;;;5051115;28;20052;-81
2023/12/23 07:58:26;;;;;;;0.20;0.00;;;;;;;;;;5069344;28;20151;-82
2023/12/23 08:00:52;;;;;;;0.20;0.10;;;;;;;;;;5057052;28;20032;-83
2023/12/23 08:03:19;;;;;;;0.20;0.00;;;;;;;;;;5069065;28;20499;-83
2023/12/23 08:05:45;;;;;;;0.20;0.05;;;;;;;;;;5072963;28;20043;-82
2023/12/23 08:08:11;;;;;;;0.20;0.00;;;;;;;;;;5071578;28;20119;-82
2023/12/23 08:10:40;;;;;;;0.20;0.00;;;;;;;;;;5064097;28;20086;-82
2023/12/23 08:13:06;;;;;;;0.20;0.00;;;;;;;;;;5068908;28;20572;-81
2023/12/23 08:15:33;;;;;;;0.20;0.08;;;;;;;;;;5073224;28;20298;-82
2023/12/23 08:17:59;;;;;;;0.20;0.00;;;;;;;;;;5070983;28;20044;-82
2023/12/23 08:20:25;;;;;;;0.20;0.00;;;;;;;;;;5049203;28;20070;-82
2023/12/23 08:22:51;;;;;;;0.20;0.10;;;;;;;;;;5053399;28;20036;-82
2023/12/23 08:25:18;;;;;;;0.20;0.00;;;;;;;;;;5059320;28;20040;-80
2023/12/23 08:27:44;;;;;;;0.20;0.10;;;;;;;;;;5056287;28;20451;-81
2023/12/23 08:30:10;;;;;;;0.20;0.00;;;;;;;;;;5070766;28;20050;-81
2023/12/23 08:32:36;;;;;;;0.20;0.00;;;;;;;;;;5083634;28;20036;-81
2023/12/23 08:35:02;;;;;;;0.20;0.10;;;;;;;;;;5056648;28;20047;-81
2023/12/23 08:37:28;;;;;;;0.20;0.00;;;;;;;;;;5071878;28;20036;-82
2023/12/23 08:39:55;;;;;;;0.20;0.10;;;;;;;;;;5058963;28;20035;-81
2023/12/23 08:42:21;;;;;;;0.20;0.10;;;;;;;;;;5055308;28;20074;-81
2023/12/23 08:44:48;;;;;;;0.20;0.00;;;;;;;;;;5046390;28;20033;-81
2023/12/23 08:47:14;;;;;;;0.20;0.10;;;;;;;;;;5068387;28;20437;-82
2023/12/23 08:49:40;;;;;;;0.30;0.30;;;;;;;;;;5050097;28;20031;-82
2023/12/23 08:52:07;;;;;;;0.20;0.10;;;;;;;;;;5061924;28;20511;-81
2023/12/23 08:54:33;;;;;;;0.20;0.00;;;;;;;;;;5050262;28;20198;-81
2023/12/23 08:56:59;;;;;;;0.20;0.10;;;;;;;;;;5070092;28;20119;-81
2023/12/23 08:59:25;;;;;;;0.20;0.00;;;;;;;;;;5051949;28;20036;-81
2023/12/23 09:01:51;;;;;;;0.20;0.00;;;;;;;;;;5050193;28;20033;-82
2023/12/23 09:04:20;;;;;;;0.30;0.28;;;;;;;;;;5049934;28;20039;-82
2023/12/23 09:06:46;;;;;;;0.20;0.10;;;;;;;;;;5042461;28;20039;-82
2023/12/23 09:09:12;;;;;;;0.20;0.00;;;;;;;;;;5066037;28;20408;-81
2023/12/23 09:11:45;;;;;;;0.20;0.10;;;;;;;;;;5053956;28;20040;-82
2023/12/23 09:14:11;;;;;;;0.20;0.10;;;;;;;;;;5048613;28;20077;-82
2023/12/23 09:16:37;;;;;;;0.20;0.00;;;;;;;;;;5055003;28;20032;-82
2023/12/23 09:19:03;;;;;;;0.20;0.00;;;;;;;;;;5062451;28;20046;-82
2023/12/23 09:21:29;;;;;;;0.20;0.00;;;;;;;;;;5052234;28;20036;-81
2023/12/23 09:23:55;;;;;;;0.20;0.10;;;;;;;;;;5053713;28;20055;-82
2023/12/23 09:26:24;;;;;;;0.20;0.00;;;;;;;;;;5066400;28;20046;-82
2023/12/23 09:28:50;;;;;;;0.20;0.10;;;;;;;;;;5054448;28;20036;-82
2023/12/23 09:31:19;;;;;;;0.20;0.10;;;;;;;;;;5055798;28;20031;-82
2023/12/23 09:33:45;;;;;;;0.20;0.00;;;;;;;;;;5051508;28;20047;-82
2023/12/23 09:36:12;;;;;;;0.20;0.00;;;;;;;;;;5047197;28;20032;-82
2023/12/23 09:38:38;;;;;;;0.50;0.38;;;;;;;;;;5047966;28;20036;-82
2023/12/23 09:41:04;;;;;;;0.20;0.10;;;;;;;;;;5049756;28;20067;-82
2023/12/23 09:43:30;;;;;;;0.20;0.00;;;;;;;;;;5049446;28;20060;-81
2023/12/23 09:45:57;;;;;;;0.20;0.10;;;;;;;;;;5054625;28;20045;-82
2023/12/23 09:48:23;;;;;;;0.20;0.00;;;;;;;;;;5065282;28;20079;-82
2023/12/23 09:50:49;;;;;;;0.20;0.00;;;;;;;;;;5068380;28;21047;-82
2023/12/23 09:53:18;;;;;;;0.20;0.00;;;;;;;;;;5053036;28;20043;-82
2023/12/23 09:55:45;;;;;;;0.20;0.00;;;;;;;;;;5064720;28;20141;-82
2023/12/23 09:58:13;;;;;;;0.20;0.10;;;;;;;;;;5051559;28;20040;-82
2023/12/23 10:00:39;;;;;;;0.20;0.03;;;;;;;;;;5068602;28;20070;-82
2023/12/23 10:03:05;;;;;;;0.20;0.00;;;;;;;;;;5067703;28;20067;-82
2023/12/23 10:05:31;;;;;;;0.20;0.00;;;;;;;;;;5048475;28;20044;-82
2023/12/23 10:07:57;;;;;;;0.20;0.00;;;;;;;;;;5054797;28;20036;-83
2023/12/23 10:10:24;;;;;;;0.20;0.00;;;;;;;;;;5054146;28;20916;-83
2023/12/23 10:12:58;;;;;;;0.20;0.00;;;;;;;;;;5049084;28;20088;-82
2023/12/23 10:15:24;;;;;;;0.20;0.00;;;;;;;;;;5050930;28;20495;-83
2023/12/23 10:17:58;;;;;;;0.20;0.10;;;;;;;;;;5059169;28;20035;-83
2023/12/23 10:20:32;;;;;;;0.20;0.00;;;;;;;;;;5062373;28;20150;-83
2023/12/23 10:22:58;;;;;;;0.20;0.10;;;;;;;;;;5049999;28;20092;-83
2023/12/23 10:25:24;;;;;;;0.20;0.10;;;;;;;;;;5055095;28;20043;-82
2023/12/23 10:28:05;;;;;;;0.20;0.00;;;;;;;;;;5051804;28;20032;-82
2023/12/23 10:30:42;;;;;;;0.20;0.10;;;;;;;;;;5070110;28;20039;-82
2023/12/23 10:33:08;;;;;;;0.20;0.10;;;;;;;;;;5050402;28;20090;-82
2023/12/23 10:35:42;;;;;;;0.20;0.00;;;;;;;;;;5072688;28;20039;-82
2023/12/23 10:38:12;;;;;;;0.20;0.10;;;;;;;;;;5054479;28;20047;-83
2023/12/23 10:40:50;;;;;;;0.20;0.10;;;;;;;;;;5071465;28;20040;-82
2023/12/23 10:43:16;;;;;;;0.20;0.10;;;;;;;;;;5065974;28;20566;-83
2023/12/23 10:45:43;;;;;;;0.20;0.10;;;;;;;;;;5056279;28;20032;-83
2023/12/23 10:48:18;;;;;;;0.20;0.00;;;;;;;;;;5051877;28;20043;-83
2023/12/23 10:50:51;;;;;;;0.20;0.00;;;;;;;;;;5050821;28;20078;-83
2023/12/23 10:53:17;;;;;;;0.20;0.00;;;;;;;;;;5068542;28;20228;-82
2023/12/23 10:55:50;;;;;;;0.20;0.10;;;;;;;;;;5067231;28;20036;-82
2023/12/23 10:58:20;;;;;;;0.20;0.05;;;;;;;;;;5055692;28;20559;-82
2023/12/23 11:00:56;;;;;;;0.20;0.10;;;;;;;;;;5046438;28;20255;-83
2023/12/23 11:03:24;;;;;;;0.20;0.00;;;;;;;;;;5051467;28;20416;-83
2023/12/23 11:06:07;;;;;;;0.20;0.10;;;;;;;;;;5052881;28;21681;-82
2023/12/23 11:08:37;;;;;;;0.20;0.10;;;;;;;;;;5066426;28;20036;-82
2023/12/23 11:11:03;;;;;;;0.68;0.20;;;;;;;;;;5068899;28;20036;-82
2023/12/23 11:13:32;;;;;;;0.20;0.10;;;;;;;;;;5053335;28;20036;-82
2023/12/23 11:16:00;;;;;;;0.20;0.20;;;;;;;;;;5062239;28;20044;-83
2023/12/23 11:18:32;;;;;;;0.20;0.15;;;;;;;;;;5062617;28;20061;-83
2023/12/23 11:20:58;;;;;;;0.20;0.10;;;;;;;;;;5051594;28;20040;-83
2023/12/23 11:23:36;;;;;;;0.20;0.10;;;;;;;;;;5040221;28;20549;-83
2023/12/23 11:26:06;;;;;;;0.20;0.10;;;;;;;;;;5039684;28;20036;-82
2023/12/23 11:28:41;;;;;;;0.20;0.10;;;;;;;;;;5047931;28;20031;-83
2023/12/23 11:31:25;;;;;;;0.20;0.10;;;;;;;;;;5066013;28;20421;-83
2023/12/23 11:33:55;;;;;;;0.20;0.10;;;;;;;;;;5067474;28;20040;-83
2023/12/23 11:36:24;;;;;;;0.20;0.10;;;;;;;;;;5051562;28;20051;-82
2023/12/23 11:38:59;;;;;;;0.20;0.10;;;;;;;;;;5067779;28;20044;-82
2023/12/23 11:41:25;;;;;;;0.20;0.10;;;;;;;;;;5068812;28;20040;-82
2023/12/23 11:43:52;;;;;;;0.30;0.30;;;;;;;;;;5053298;28;20136;-83
2023/12/23 11:46:23;;;;;;;0.20;0.00;;;;;;;;;;5067576;28;20511;-81
2023/12/23 11:48:49;;;;;;;0.20;0.00;;;;;;;;;;5065716;28;20038;-82
2023/12/23 11:51:18;;;;;;;0.20;0.00;;;;;;;;;;5050729;28;20049;-81
2023/12/23 11:53:44;;;;;;;0.20;0.10;;;;;;;;;;5041836;28;20072;-82
2023/12/23 11:56:10;;;;;;;0.20;0.10;;;;;;;;;;5066190;28;20173;-82
2023/12/23 11:58:37;;;;;;;0.20;0.10;;;;;;;;;;5049387;28;20043;-82
2023/12/23 12:01:03;;;;;;;0.20;0.10;;;;;;;;;;5045959;28;20129;-83
2023/12/23 12:03:29;;;;;;;0.20;0.10;;;;;;;;;;5048975;28;20047;-82
2023/12/23 12:06:02;;;;;;;0.20;0.10;;;;;;;;;;5052163;28;20543;-83
2023/12/23 12:08:40;;;;;;;0.20;0.10;;;;;;;;;;5048806;28;20614;-82
2023/12/23 12:11:06;;;;;;;0.20;0.00;;;;;;;;;;5064838;28;20066;-82
2023/12/23 12:13:36;;;;;;;0.20;0.10;;;;;;;;;;5074252;28;20040;-82
2023/12/23 12:16:02;;;;;;;0.20;0.10;;;;;;;;;;5067223;28;20058;-81
2023/12/23 12:18:28;;;;;;;0.20;0.03;;;;;;;;;;5059947;28;20043;-82
2023/12/23 12:20:55;;;;;;;0.20;0.10;;;;;;;;;;5051575;28;20045;-85
2023/12/23 12:23:21;;;;;;;0.20;0.00;;;;;;;;;;5067349;28;20045;-82
2023/12/23 12:25:50;;;;;;;0.20;0.00;;;;;;;;;;5051113;28;20054;-82
2023/12/23 12:28:17;;;;;;;0.20;0.10;;;;;;;;;;5063648;28;20591;-82
2023/12/23 12:30:46;;;;;;;0.20;0.00;;;;;;;;;;5046786;28;20067;-82
2023/12/23 12:33:12;;;;;;;0.20;0.00;;;;;;;;;;5051867;28;20048;-81
2023/12/23 12:35:40;;;;;;;0.20;0.08;;;;;;;;;;5062767;28;20032;-83
2023/12/23 12:38:08;;;;;;;0.20;0.00;;;;;;;;;;5050461;28;20043;-83
2023/12/23 12:40:35;;;;;;;0.20;0.10;;;;;;;;;;5084324;28;20483;-83
2023/12/23 12:43:05;;;;;;;0.20;0.00;;;;;;;;;;5050959;28;20036;-82
2023/12/23 12:45:40;;;;;;;0.20;0.00;;;;;;;;;;5047160;28;20047;-82
2023/12/23 12:48:13;;;;;;;0.20;0.00;;;;;;;;;;5048036;28;20036;-82
2023/12/23 12:50:42;;;;;;;0.20;0.00;;;;;;;;;;5065200;28;20040;-81
2023/12/23 12:53:09;;;;;;;0.20;0.08;;;;;;;;;;5065353;28;20040;-83
2023/12/23 12:55:35;;;;;;;0.20;0.00;;;;;;;;;;5043804;28;20041;-81
2023/12/23 12:58:01;;;;;;;0.20;0.05;;;;;;;;;;5051487;28;20549;-84
2023/12/23 13:00:27;;;;;;;0.20;0.00;;;;;;;;;;5060316;28;20098;-85
2023/12/23 13:02:54;;;;;;;0.20;0.00;;;;;;;;;;5050567;28;20097;-83
2023/12/23 13:05:20;;;;;;;0.20;0.00;;;;;;;;;;5064267;28;20032;-85
2023/12/23 13:07:46;;;;;;;0.20;0.00;;;;;;;;;;5067254;28;20040;-83
2023/12/23 13:10:13;;;;;;;0.20;0.10;;;;;;;;;;5045666;28;20040;-85
2023/12/23 13:12:39;;;;;;;0.20;0.10;;;;;;;;;;5067343;28;20113;-84
2023/12/23 13:15:06;;;;;;;0.20;0.10;;;;;;;;;;5070584;22;20090;-89
2023/12/23 13:17:32;;;;;;;0.20;0.10;;;;;;;;;;5034480;28;20045;-85
2023/12/23 13:19:57;;;;;;;0.20;0.00;;;;;;;;;;5033049;28;20033;-84
2023/12/23 13:22:24;;;;;;;0.20;0.00;;;;;;;;;;5013393;28;20048;-82
2023/12/23 13:24:50;;;;;;;0.20;0.05;;;;;;;;;;5036562;28;20044;-83
2023/12/23 13:27:18;;;;;;;0.20;0.00;;;;;;;;;;5030785;28;20037;-85
2023/12/23 13:29:44;;;;;;;0.20;0.00;;;;;;;;;;5010156;28;20041;-82
2023/12/23 13:32:15;;;;;;;0.20;0.00;;;;;;;;;;5018906;28;20500;-90
2023/12/23 13:34:44;;;;;;;0.20;0.00;;;;;;;;;;5045802;28;20048;-87
2023/12/23 13:37:10;;;;;;;0.20;0.10;;;;;;;;;;5032234;28;20045;-85
2023/12/23 13:39:36;;;;;;;0.20;0.00;;;;;;;;;;5025583;28;20048;-85
2023/12/23 13:42:03;;;;;;;0.20;0.00;;;;;;;;;;5019619;28;20051;-84
2023/12/23 13:44:29;;;;;;;0.20;0.00;;;;;;;;;;5027183;28;20059;-83
2023/12/23 13:47:00;;;;;;;0.20;0.00;;;;;;;;;;5032136;28;20067;-84
2023/12/23 13:49:26;;;;;;;0.20;0.13;;;;;;;;;;5029717;28;20044;-84
2023/12/23 13:51:52;;;;;;;0.20;0.00;;;;;;;;;;5030631;28;20055;-84
2023/12/23 13:54:24;;;;;;;0.65;0.30;;;;;;;;;;5030206;28;20120;-89
2023/12/23 13:56:50;;;;;;;0.20;0.10;;;;;;;;;;5019734;28;20416;-85
2023/12/23 13:59:16;;;;;;;0.20;0.03;;;;;;;;;;5019192;28;20053;-85
2023/12/23 14:01:42;;;;;;;0.20;0.10;;;;;;;;;;5009352;28;20673;-86
2023/12/23 14:04:11;;;;;;;0.20;0.10;;;;;;;;;;5032435;28;20090;-85
2023/12/23 14:06:37;;;;;;;0.20;0.00;;;;;;;;;;5016575;28;20070;-84
2023/12/23 14:09:05;;;;;;;0.20;0.00;;;;;;;;;;5024924;28;20061;-80
2023/12/23 14:11:31;;;;;;;0.20;0.00;;;;;;;;;;5023768;28;20119;-86
2023/12/23 14:13:57;;;;;;;0.20;0.00;;;;;;;;;;5019812;28;20095;-85
2023/12/23 14:16:23;;;;;;;0.20;0.10;;;;;;;;;;5050369;28;20672;-86
2023/12/23 14:18:52;;;;;;;0.20;0.00;;;;;;;;;;5027688;28;20071;-86
2023/12/23 14:21:18;;;;;;;0.20;0.00;;;;;;;;;;5027843;28;20123;-84
2023/12/23 14:23:47;;;;;;;0.20;0.00;;;;;;;;;;5025876;28;20465;-87
2023/12/23 14:26:19;;;;;;;0.20;0.00;;;;;;;;;;5011555;28;20569;-84
2023/12/23 14:28:45;;;;;;;0.20;0.00;;;;;;;;;;5042540;28;20128;-83
2023/12/23 14:31:13;;;;;;;0.20;0.00;;;;;;;;;;5023339;28;20048;-85
2023/12/23 14:33:39;;;;;;;0.20;0.20;;;;;;;;;;5029397;28;20045;-85
2023/12/23 14:36:05;;;;;;;0.20;0.00;;;;;;;;;;5003190;28;20045;-88
2023/12/23 14:38:31;;;;;;;0.20;0.00;;;;;;;;;;5025974;28;20461;-88
2023/12/23 14:40:57;;;;;;;0.20;0.00;;;;;;;;;;5015830;28;20352;-84
2023/12/23 14:43:23;;;;;;;0.20;0.00;;;;;;;;;;5027972;28;20770;-83